createdAt,value
2023-06-13T18:06:32.799Z,100309.78
2023-06-13T18:09:04.022Z,100309.28
2023-06-13T18:11:32.139Z,100313.09
2023-06-13T18:14:00.601Z,100306.41
2023-06-13T18:16:29.197Z,100308.16
2023-06-13T18:18:59.379Z,100324.75
2023-06-13T18:21:29.119Z,100318.00
2023-06-13T18:23:59.622Z,100321.38
2023-06-13T18:26:29.985Z,100318.41
2023-06-13T18:29:00.709Z,100312.63
2023-06-13T18:31:28.571Z,100319.19
2023-06-13T18:33:56.649Z,100321.72
2023-06-13T18:36:27.631Z,100322.41
2023-06-13T18:38:56.386Z,100313.94
2023-06-13T18:41:24.981Z,100313.00
2023-06-13T18:43:52.744Z,100323.38
2023-06-13T18:46:20.645Z,100320.38
2023-06-13T18:48:50.513Z,100324.25
2023-06-13T18:51:46.673Z,100321.88
2023-06-13T18:54:14.852Z,100320.28
2023-06-13T18:57:22.114Z,100322.38
2023-06-13T18:59:58.347Z,100321.19
2023-06-13T19:02:26.508Z,100312.28
2023-06-13T19:04:55.062Z,100307.47
2023-06-13T19:07:22.984Z,100317.81
2023-06-13T19:09:50.810Z,100314.78
2023-06-13T19:12:23.323Z,100326.56
2023-06-13T19:14:51.592Z,100318.66
2023-06-13T19:17:19.302Z,100318.28
2023-06-13T19:19:47.250Z,100315.25
2023-06-13T19:22:14.952Z,100322.75
2023-06-13T19:24:42.913Z,100321.53
2023-06-13T19:27:10.805Z,100320.91
2023-06-13T19:29:38.536Z,100320.94
2023-06-13T19:32:07.248Z,100319.13
2023-06-13T19:34:35.170Z,100325.78
2023-06-13T19:37:04.887Z,100320.13
2023-06-13T19:39:34.192Z,100311.22
2023-06-13T19:42:01.995Z,100316.88
2023-06-13T19:44:29.833Z,100325.38
2023-06-13T19:46:57.745Z,100312.81
2023-06-13T19:49:25.346Z,100320.91
2023-06-13T19:51:55.056Z,100320.09
2023-06-13T19:54:23.385Z,100312.56
2023-06-13T19:56:51.423Z,100313.38
2023-06-13T19:59:19.836Z,100309.50
2023-06-13T20:01:47.868Z,100320.84
2023-06-13T20:04:15.853Z,100317.19
2023-06-13T20:06:43.676Z,100309.47
2023-06-13T20:09:11.391Z,100320.00
2023-06-13T20:11:39.397Z,100320.19
2023-06-13T20:14:06.927Z,100317.94
2023-06-13T20:16:37.621Z,100321.19
2023-06-13T20:19:05.528Z,100321.19
2023-06-13T20:21:33.269Z,100317.31
2023-06-13T20:24:02.733Z,100311.88
2023-06-13T20:26:30.793Z,100323.94
2023-06-13T20:28:58.508Z,100327.53
2023-06-13T20:31:26.380Z,100328.16
2023-06-13T20:33:54.159Z,100329.13
2023-06-13T20:36:22.440Z,100325.03
2023-06-13T20:38:50.090Z,100326.81
2023-06-13T20:41:17.852Z,100330.00
2023-06-13T20:43:45.437Z,100337.44
2023-06-13T20:46:13.420Z,100334.19
2023-06-13T20:48:42.302Z,100338.44
2023-06-13T20:51:10.804Z,100329.91
2023-06-13T20:53:38.565Z,100334.72
2023-06-13T20:56:06.826Z,100335.09
2023-06-13T20:58:35.602Z,100341.13
2023-06-13T21:01:04.461Z,100339.44
2023-06-13T21:03:33.340Z,100340.22
2023-06-13T21:06:01.782Z,100339.03
2023-06-13T21:08:32.748Z,100329.28
2023-06-13T21:11:00.466Z,100332.31
2023-06-13T21:13:30.203Z,100326.56
2023-06-13T21:16:00.220Z,100336.44
2023-06-13T21:18:28.109Z,100335.44
2023-06-13T21:20:57.041Z,100336.84
2023-06-13T21:23:24.749Z,100342.31
2023-06-13T21:25:52.603Z,100345.66
2023-06-13T21:28:21.014Z,100350.69
2023-06-13T21:30:48.730Z,100346.63
2023-06-13T21:33:19.248Z,100344.94
2023-06-13T21:35:46.874Z,100343.25
2023-06-13T21:38:15.661Z,100344.28
2023-06-13T21:40:43.249Z,100336.31
2023-06-13T21:43:11.966Z,100337.88
2023-06-13T21:45:39.694Z,100336.59
2023-06-13T21:48:07.424Z,100352.06
2023-06-13T21:50:35.064Z,100357.69
2023-06-13T21:53:03.364Z,100350.81
2023-06-13T21:55:31.584Z,100343.13
2023-06-13T21:57:59.311Z,100341.69
2023-06-13T22:00:27.178Z,100341.41
2023-06-13T22:02:55.017Z,100353.53
2023-06-13T22:05:23.029Z,100347.91
2023-06-13T22:07:51.217Z,100354.16
2023-06-13T22:10:19.606Z,100351.91
2023-06-13T22:12:48.457Z,100338.66
2023-06-13T22:15:16.246Z,100351.84
2023-06-13T22:17:45.905Z,100348.13
2023-06-13T22:20:23.151Z,100360.78
2023-06-13T22:22:54.593Z,100354.47
2023-06-13T22:25:24.294Z,100360.94
2023-06-13T22:27:55.952Z,100359.13
2023-06-13T22:30:25.453Z,100358.69
2023-06-13T22:32:54.439Z,100358.59
2023-06-13T22:35:23.605Z,100362.59
2023-06-13T22:37:52.736Z,100360.31
2023-06-13T22:40:21.574Z,100360.50
2023-06-13T22:42:49.324Z,100355.47
2023-06-13T22:45:17.962Z,100351.41
2023-06-13T22:47:46.519Z,100348.16
2023-06-13T22:50:16.111Z,100358.81
2023-06-13T22:52:46.549Z,100353.13
2023-06-13T22:55:14.414Z,100355.81
2023-06-13T22:57:43.115Z,100354.31
2023-06-13T23:00:13.670Z,100343.28
2023-06-13T23:02:42.634Z,100349.53
2023-06-13T23:05:10.392Z,100350.06
2023-06-13T23:07:38.147Z,100341.72
2023-06-13T23:10:06.136Z,100342.88
2023-06-13T23:12:33.776Z,100336.94
2023-06-13T23:15:01.664Z,100338.28
2023-06-13T23:17:29.686Z,100350.09
2023-06-13T23:20:00.297Z,100349.63
2023-06-13T23:22:29.535Z,100354.22
2023-06-13T23:24:57.990Z,100348.19
2023-06-13T23:27:26.381Z,100341.34
2023-06-13T23:29:55.177Z,100344.66
2023-06-13T23:32:26.592Z,100343.91
2023-06-13T23:34:58.621Z,100340.38
2023-06-13T23:37:29.416Z,100336.84
2023-06-13T23:39:57.029Z,100338.69
2023-06-13T23:42:24.697Z,100345.44
2023-06-13T23:44:52.472Z,100340.75
2023-06-13T23:47:20.450Z,100343.69
2023-06-13T23:49:48.352Z,100335.94
2023-06-13T23:52:16.003Z,100344.75
2023-06-13T23:54:43.778Z,100341.16
2023-06-13T23:57:11.568Z,100335.47
2023-06-13T23:59:39.382Z,100336.97
